Terminal Aerodrome Forecast
Issued by NWS

Home | Current Version | Previous Version | Text Only | Print | Product List | Glossary On
Versions: 1 2 3 4 5 6 7 8 9 10 11 12 13 14 15 16 17 18 19 20 21 22 23 24 25 26 27 28 29 30 31 32 33 34 35 36 37 38 39 40 41 42 43 44 45 46 47 48 49 50
000
FTUS45 KBOU 012042 AAC
TAFAPA
TAF AMD
KAPA 012042Z 0121/0218 02005KT P6SM FEW010 BKN020
     FM012200 04006KT P6SM VCSH SCT015 BKN028 OVC035
      TEMPO 0201/0205 3SM -SN BR OVC015
     FM020500 16008KT P6SM VCSH BKN015
     FM020900 18005KT P6SM SCT015 BKN030
     FM021200 VRB04KT 4SM BR SCT005 BKN015
      TEMPO 0212/0215 1SM BR=

USA.gov is the U.S. government's official web portal to all federal, state and local government web resources and services.